Strona główna
METAR-TAF:

METAR-TAF

Lotnisko :

Port lotniczy Palembang

Palembang, Indonezja

Szerokość geograficzna: 02-54S, Długość geograficzna: 104-42E, wysokość: 10 m

Aktualna obserwacja pogody

Raport powstał 33 minut temu, godzina 13:30 UTC
Wiatr 2 kt od północno-północny zachód
Temperatura 26°C
Wilgotność 89%
Ciśnienie 1011 hPa
Widzialność 10 km lub więcej
Mało chmury na wysokości 1000 ft

METAR: WIPP 211330Z 33002KT 9999 FEW010 26/24 Q1011 NOSIG

czas: 21:03 (14:03 UTC)

Prognoza

Raport powstał 3 godziny i 3 minut temu, godzina 11:00 UTC
Prognoza ważna od 21 godzina 12 UTC do 22 godzina 12 UTC
Wiatr 5 kt od północny zachód
Widzialność 10 km lub więcej
Rozproszone chmury na wysokości 1000 ft
Przejściowo
od 21 godzina 16 UTC do 21 godzina 20 UTC
Widzialność: 5000 m
Mało chmury na wysokości 1000 ft, Cumulonimbus.
Przerywane chmury na wysokości 1000 ft
burza, deszcz

TAF: WIPP 211100Z 2112/2212 32005KT 9999 SCT010 TEMPO 2116/2120 5000 TSRA FEW010CB BKN010

Obserwacja i prognoza pogody dla ponad 4000 lotnisk (raport METAR i TAF).

Dostępne stacje oznaczono żółtymi i czerwonymi punktami na mapie.

Najedź kursorem aby zobaczyć nazwę stacji.

Kliknij aby zobaczyć obserwacje i prognozy pogody.

Aby zmienić mapę: kliknij na zielony przycisk z czarnym krzyżykiem, aby powiększyć; na zielony przycisk z myślnikiem, aby pomniejszyć; na zielone strzałki, aby przejść do map sąsiednich.


METAR-TAF: